Time;durP1;ratioP1;P1;durP2;ratioP2;P2;SDS_P1;SDS_P2;PMS_P1;PMS_P2;Temp;Humidity;BMP_temperature;BMP_pressure;BME280_temperature;BME280_humidity;BME280_pressure;Samples;Min_cycle;Max_cycle;Signal;HPM_P1;HPM_P2
2022/02/25 00:01:21;;;;;;;74.85;38.47;;;;;;;2.24;55.59;95339.13;5028495;28;20475;-78
2022/02/25 00:03:47;;;;;;;68.05;37.25;;;;;;;2.26;55.54;95339.75;5030432;28;20037;-78
2022/02/25 00:06:12;;;;;;;84.05;40.13;;;;;;;2.27;55.70;95333.63;5030522;28;20033;-78
2022/02/25 00:08:38;;;;;;;92.88;45.72;;;;;;;2.17;56.39;95337.41;5028809;28;20029;-78
2022/02/25 00:11:03;;;;;;;116.57;52.85;;;;;;;2.16;56.27;95330.66;4996716;28;20036;-78
2022/02/25 00:13:29;;;;;;;139.43;68.43;;;;;;;2.14;55.99;95328.28;5023043;22;20049;-78
2022/02/25 00:15:57;;;;;;;151.43;75.93;;;;;;;2.20;56.43;95330.16;5029593;28;20029;-78
2022/02/25 00:18:24;;;;;;;165.18;80.22;;;;;;;2.15;56.41;95329.88;5028583;28;20562;-78
2022/02/25 00:20:50;;;;;;;163.32;77.32;;;;;;;2.13;56.61;95329.25;5029202;28;20032;-78
2022/02/25 00:23:16;;;;;;;149.90;75.80;;;;;;;2.15;57.06;95324.75;5027348;28;20041;-77
2022/02/25 00:25:41;;;;;;;130.45;59.70;;;;;;;2.18;56.84;95324.41;5024854;28;20179;-77
2022/02/25 00:28:07;;;;;;;150.07;68.30;;;;;;;2.18;56.81;95319.28;5028778;28;20033;-77
2022/02/25 00:30:32;;;;;;;131.27;65.43;;;;;;;2.13;56.71;95321.53;5031269;28;20061;-77
2022/02/25 00:32:57;;;;;;;153.88;72.63;;;;;;;2.12;56.78;95316.59;5032120;28;20034;-77
2022/02/25 00:35:23;;;;;;;131.80;70.07;;;;;;;2.12;56.70;95312.25;5031626;28;20038;-78
2022/02/25 00:37:49;;;;;;;177.98;90.82;;;;;;;2.10;57.03;95309.03;5031546;28;20033;-77
2022/02/25 00:40:14;;;;;;;130.35;63.72;;;;;;;2.03;57.47;95301.22;5031272;28;20033;-78
2022/02/25 00:45:08;;;;;;;111.85;58.80;;;;;;;2.11;57.00;95305.50;5022610;22;20062;-78
2022/02/25 00:47:34;;;;;;;172.00;88.93;;;;;;;2.10;56.90;95298.75;5012493;28;20531;-78
2022/02/25 00:49:59;;;;;;;152.95;73.72;;;;;;;2.06;56.25;95289.81;5008502;28;20026;-78
2022/02/25 00:52:25;;;;;;;113.00;58.42;;;;;;;2.02;56.79;95291.13;5012658;28;20091;-78
2022/02/25 00:54:50;;;;;;;115.93;62.33;;;;;;;1.94;57.13;95280.88;5012379;28;20504;-78
2022/02/25 00:57:16;;;;;;;138.57;69.35;;;;;;;1.93;56.54;95289.53;5015336;28;20490;-78
2022/02/25 00:59:41;;;;;;;132.23;68.03;;;;;;;1.85;57.13;95280.13;5009653;28;20033;-77
2022/02/25 01:02:07;;;;;;;129.85;63.15;;;;;;;1.83;57.41;95284.63;5012975;28;20034;-77
2022/02/25 01:04:32;;;;;;;118.53;58.88;;;;;;;1.82;57.24;95277.91;5012108;28;20413;-78
2022/02/25 01:06:57;;;;;;;109.65;49.42;;;;;;;1.79;57.24;95284.16;5011052;28;20048;-78
2022/02/25 01:09:24;;;;;;;79.35;40.10;;;;;;;1.71;56.74;95291.06;5008943;28;20041;-78
2022/02/25 01:11:49;;;;;;;89.15;44.90;;;;;;;1.78;57.56;95289.44;5013129;28;20519;-78
2022/02/25 01:14:15;;;;;;;85.93;40.55;;;;;;;1.77;57.35;95291.19;5008956;28;20505;-78
2022/02/25 01:16:40;;;;;;;84.18;37.45;;;;;;;1.83;57.61;95283.84;5010576;28;20038;-78
2022/02/25 01:19:05;;;;;;;66.72;34.75;;;;;;;1.80;58.48;95277.28;5011992;28;20026;-78
2022/02/25 01:21:31;;;;;;;74.35;31.75;;;;;;;1.93;57.88;95279.28;5011346;28;20053;-78
2022/02/25 01:23:56;;;;;;;61.97;29.75;;;;;;;1.95;58.24;95282.47;5009545;28;20478;-77
2022/02/25 01:26:22;;;;;;;69.50;31.95;;;;;;;1.95;59.16;95279.91;5009338;28;20130;-77
2022/02/25 01:28:47;;;;;;;61.22;30.75;;;;;;;1.94;58.21;95273.19;5011567;28;20029;-77
2022/02/25 01:31:13;;;;;;;84.80;32.60;;;;;;;1.98;58.53;95271.91;4992809;28;20096;-77
2022/02/25 01:33:38;;;;;;;70.32;33.78;;;;;;;1.91;57.65;95264.06;5011342;28;20038;-77
2022/02/25 01:36:04;;;;;;;71.15;32.55;;;;;;;1.90;58.20;95262.47;5011013;28;20026;-77
2022/02/25 01:38:30;;;;;;;74.72;30.77;;;;;;;1.92;58.67;95262.31;5010284;28;20112;-77
2022/02/25 01:40:55;;;;;;;66.75;32.35;;;;;;;1.84;57.98;95259.78;5009942;28;20072;-77
2022/02/25 01:43:21;;;;;;;71.20;31.58;;;;;;;1.82;58.37;95261.72;4994497;28;20041;-78
2022/02/25 01:45:52;;;;;;;77.38;38.08;;;;;;;1.76;57.57;95256.28;4993521;28;20087;-77
2022/02/25 01:48:19;;;;;;;123.85;49.80;;;;;;;1.75;57.91;95251.31;4978839;28;20200;-77
2022/02/25 01:50:45;;;;;;;103.18;47.63;;;;;;;1.76;58.10;95258.03;5010903;28;20025;-78
2022/02/25 01:53:10;;;;;;;138.45;57.45;;;;;;;1.67;57.74;95254.72;5011308;28;20049;-77
2022/02/25 01:55:38;;;;;;;151.68;67.20;;;;;;;1.56;57.63;95260.19;4994167;28;20037;-77
2022/02/25 01:58:04;;;;;;;146.73;62.55;;;;;;;1.50;58.59;95253.97;5009807;28;20045;-77
2022/02/25 02:00:29;;;;;;;157.75;68.53;;;;;;;1.53;58.03;95247.72;5010405;28;20068;-77
2022/02/25 02:02:55;;;;;;;147.27;63.58;;;;;;;1.46;57.56;95246.75;5009681;28;20517;-77
2022/02/25 02:05:20;;;;;;;142.20;60.58;;;;;;;1.50;57.79;95250.63;4992819;28;20105;-77
2022/02/25 02:07:46;;;;;;;163.63;63.03;;;;;;;1.39;58.34;95246.63;5009212;28;20030;-77
2022/02/25 02:10:11;;;;;;;125.13;55.45;;;;;;;1.35;58.40;95244.56;5009830;28;20041;-77
2022/02/25 02:12:37;;;;;;;122.00;55.55;;;;;;;1.31;58.94;95244.09;4977118;28;20026;-77
2022/02/25 02:15:04;;;;;;;128.60;55.25;;;;;;;1.27;59.29;95247.13;4992877;28;20049;-77
2022/02/25 02:17:30;;;;;;;151.15;58.65;;;;;;;1.23;58.96;95240.75;4993651;28;20401;-77
2022/02/25 02:19:56;;;;;;;144.55;66.72;;;;;;;1.28;59.11;95248.75;5009437;28;20030;-77
2022/02/25 02:22:25;;;;;;;154.02;73.35;;;;;;;1.23;59.07;95240.75;5009857;28;20052;-77
2022/02/25 02:24:50;;;;;;;195.73;96.90;;;;;;;1.23;58.49;95244.13;5011040;28;20029;-77
2022/02/25 02:27:16;;;;;;;138.20;61.65;;;;;;;1.20;58.87;95237.56;5011620;28;20037;-77
2022/02/25 02:29:41;;;;;;;138.60;59.67;;;;;;;1.22;58.16;95239.16;5011605;28;20029;-77
2022/02/25 02:32:07;;;;;;;68.90;33.08;;;;;;;1.25;59.35;95238.81;5011003;28;20033;-77
2022/02/25 02:34:32;;;;;;;67.25;29.05;;;;;;;1.24;59.15;95229.53;5009811;28;20030;-77
2022/02/25 02:36:58;;;;;;;52.88;29.05;;;;;;;1.25;59.51;95234.50;5008969;28;20406;-77
2022/02/25 02:39:23;;;;;;;52.25;25.13;;;;;;;1.23;59.13;95222.81;5008946;28;21018;-77
2022/02/25 02:41:48;;;;;;;59.88;29.80;;;;;;;1.14;59.19;95227.19;5010694;28;20030;-77
2022/02/25 02:44:14;;;;;;;74.53;33.95;;;;;;;1.12;59.52;95229.88;5010853;28;20046;-77
2022/02/25 02:46:44;;;;;;;80.05;36.28;;;;;;;1.09;58.91;95225.09;4990632;28;20030;-77
2022/02/25 02:49:10;;;;;;;90.28;35.80;;;;;;;1.09;59.12;95216.59;5010498;28;20044;-77
2022/02/25 02:51:35;;;;;;;67.90;29.15;;;;;;;1.17;58.96;95221.72;5008607;28;20030;-77
2022/02/25 02:54:03;;;;;;;57.45;27.10;;;;;;;1.19;59.82;95214.66;5009955;28;20088;-77
2022/02/25 02:56:29;;;;;;;75.43;31.40;;;;;;;1.23;59.24;95231.31;5010101;28;20557;-77
2022/02/25 02:58:55;;;;;;;88.65;41.72;;;;;;;1.14;58.47;95219.50;5009959;28;20072;-77
2022/02/25 03:01:31;;;;;;;110.05;49.75;;;;;;;1.20;58.36;95221.38;5007918;28;20065;-76
2022/02/25 03:03:58;;;;;;;150.20;69.43;;;;;;;1.17;58.43;95222.53;5009526;28;20113;-77
2022/02/25 03:06:25;;;;;;;174.18;78.05;;;;;;;1.07;58.40;95221.09;5008983;28;20034;-76
2022/02/25 03:08:51;;;;;;;152.13;67.50;;;;;;;1.06;58.33;95222.06;5009476;28;20387;-77
2022/02/25 03:11:16;;;;;;;87.88;39.15;;;;;;;1.03;59.34;95224.94;5008699;28;20057;-77
2022/02/25 03:13:42;;;;;;;61.45;30.00;;;;;;;1.05;59.26;95213.56;5009595;28;20045;-77
2022/02/25 03:16:10;;;;;;;49.83;23.50;;;;;;;1.13;59.08;95215.31;5008752;28;20041;-77
2022/02/25 03:18:35;;;;;;;55.55;24.88;;;;;;;1.18;59.07;95218.19;5009266;28;20116;-77
2022/02/25 03:21:05;;;;;;;51.45;26.05;;;;;;;1.20;59.46;95216.28;5009598;28;20026;-77
2022/02/25 03:23:33;;;;;;;40.30;21.48;;;;;;;1.24;58.44;95212.41;5009876;28;20026;-77
2022/02/25 03:25:58;;;;;;;72.75;34.40;;;;;;;1.21;58.86;95215.31;5009276;28;20033;-77
2022/02/25 03:28:24;;;;;;;91.78;47.25;;;;;;;1.20;58.05;95223.94;5009115;28;20413;-77
2022/02/25 03:30:49;;;;;;;134.43;58.35;;;;;;;1.10;58.47;95220.75;5009557;28;20512;-77
2022/02/25 03:33:14;;;;;;;116.65;57.35;;;;;;;1.01;58.47;95217.44;4992085;28;20046;-77
2022/02/25 03:35:40;;;;;;;111.05;55.28;;;;;;;1.00;58.45;95227.84;5006619;28;20034;-77
2022/02/25 03:38:05;;;;;;;121.53;56.22;;;;;;;0.97;58.76;95231.50;5009647;28;20025;-77
2022/02/25 03:40:31;;;;;;;94.68;51.72;;;;;;;0.96;58.69;95229.91;5009203;28;20026;-78
2022/02/25 03:42:56;;;;;;;98.25;53.67;;;;;;;0.90;59.01;95235.69;5008364;28;20493;-77
2022/02/25 03:45:22;;;;;;;127.38;64.15;;;;;;;0.85;59.32;95235.38;5009163;28;20034;-77
2022/02/25 03:47:48;;;;;;;123.22;67.40;;;;;;;0.76;60.02;95244.00;4991093;28;20068;-77
2022/02/25 03:50:13;;;;;;;90.50;48.22;;;;;;;0.83;60.14;95239.84;5009109;28;20038;-77
2022/02/25 03:52:39;;;;;;;82.20;42.80;;;;;;;0.92;58.77;95249.13;4990684;28;20034;-77
2022/02/25 03:55:05;;;;;;;105.15;50.45;;;;;;;0.86;58.64;95244.66;5009186;28;20066;-77
2022/02/25 03:57:30;;;;;;;92.18;48.05;;;;;;;0.76;59.13;95244.00;4991759;28;20033;-77
2022/02/25 03:59:56;;;;;;;103.97;52.58;;;;;;;0.71;59.24;95246.25;5008169;28;20037;-77
2022/02/25 04:02:21;;;;;;;96.03;49.22;;;;;;;0.71;59.70;95248.81;4991129;28;20029;-77
2022/02/25 04:04:47;;;;;;;79.88;45.67;;;;;;;0.68;59.43;95252.50;4992818;28;20410;-77
2022/02/25 04:07:13;;;;;;;81.60;46.35;;;;;;;0.65;59.59;95257.94;5012705;28;20037;-77
2022/02/25 04:09:38;;;;;;;87.60;46.40;;;;;;;0.62;59.95;95260.00;5011128;28;20041;-77
2022/02/25 04:12:04;;;;;;;114.60;55.95;;;;;;;0.58;59.16;95247.53;5012619;28;20958;-77
2022/02/25 04:14:29;;;;;;;129.80;58.72;;;;;;;0.64;60.22;95255.50;4994861;28;20030;-77
2022/02/25 04:16:55;;;;;;;120.50;54.58;;;;;;;0.63;59.46;95254.72;5010952;28;20041;-77
2022/02/25 04:19:20;;;;;;;93.90;51.50;;;;;;;0.54;59.72;95259.03;4994440;28;20029;-77
2022/02/25 04:21:46;;;;;;;99.75;52.13;;;;;;;0.53;59.84;95249.78;4978508;28;20121;-77
2022/02/25 04:24:12;;;;;;;91.97;52.92;;;;;;;0.57;60.08;95250.25;5011039;28;20046;-77
2022/02/25 04:26:37;;;;;;;80.88;47.05;;;;;;;0.53;60.34;95239.53;4978390;28;20025;-77
2022/02/25 04:29:03;;;;;;;90.78;52.47;;;;;;;0.54;60.03;95241.13;4994184;28;20034;-77
2022/02/25 04:31:28;;;;;;;96.50;53.05;;;;;;;0.57;59.68;95240.00;4994770;28;20026;-77
2022/02/25 04:33:53;;;;;;;94.38;54.22;;;;;;;0.62;59.51;95237.75;4994608;28;20030;-77
2022/02/25 04:36:22;;;;;;;75.03;41.40;;;;;;;0.63;59.12;95236.00;5010747;28;20034;-77
2022/02/25 04:38:48;;;;;;;71.03;39.33;;;;;;;0.51;59.79;95236.34;5010753;28;20034;-77
2022/02/25 04:41:13;;;;;;;79.28;48.50;;;;;;;0.42;59.18;95233.94;5011985;28;20038;-76
2022/02/25 04:43:42;;;;;;;88.05;48.63;;;;;;;0.40;59.28;95239.19;5011896;28;20521;-77
2022/02/25 04:46:18;;;;;;;83.22;47.97;;;;;;;0.37;59.10;95225.94;5010630;28;20041;-77
2022/02/25 04:48:44;;;;;;;88.38;43.15;;;;;;;0.32;59.34;95226.38;5010546;28;20148;-77
2022/02/25 04:51:09;;;;;;;71.47;43.90;;;;;;;0.38;59.82;95225.78;5011861;28;20034;-77
2022/02/25 04:53:35;;;;;;;83.03;44.25;;;;;;;0.34;58.99;95219.38;4996065;28;20029;-78
2022/02/25 04:56:00;;;;;;;80.65;42.63;;;;;;;0.38;59.71;95225.78;5012768;28;20029;-77
2022/02/25 04:58:26;;;;;;;67.80;34.13;;;;;;;0.35;59.25;95222.75;4995087;28;20411;-78
2022/02/25 05:00:51;;;;;;;73.80;34.20;;;;;;;0.40;59.40;95228.16;5013218;28;20022;-79
2022/02/25 05:03:17;;;;;;;64.38;33.97;;;;;;;0.38;59.77;95219.88;4995847;28;20839;-79
2022/02/25 05:05:43;;;;;;;60.72;31.23;;;;;;;0.47;59.75;95209.44;5010943;28;20045;-77
2022/02/25 05:08:08;;;;;;;57.70;26.38;;;;;;;0.54;59.82;95215.53;5034940;22;20057;-78
2022/02/25 05:10:34;;;;;;;53.42;25.90;;;;;;;0.64;59.51;95219.69;5041803;28;20133;-77
2022/02/25 05:12:59;;;;;;;53.88;25.42;;;;;;;0.69;59.66;95223.38;5040629;28;20037;-78
2022/02/25 05:20:53;;;;;;;210.55;111.72;;;;;;;0.76;58.42;95228.66;5041423;28;20503;-77
2022/02/25 05:23:18;;;;;;;271.25;143.32;;;;;;;0.86;57.79;95229.28;5041888;28;20029;-77
2022/02/25 05:25:44;;;;;;;296.48;159.45;;;;;;;0.87;57.36;95220.66;5008026;28;20029;-78
2022/02/25 05:28:09;;;;;;;200.80;103.95;;;;;;;0.96;57.42;95224.78;5024506;28;20041;-77
2022/02/25 05:30:35;;;;;;;158.85;83.32;;;;;;;1.02;57.91;95228.47;5039644;28;20021;-76
2022/02/25 05:33:00;;;;;;;115.38;47.90;;;;;;;1.29;58.18;95230.63;5042401;28;20033;-79
2022/02/25 05:35:26;;;;;;;72.75;32.65;;;;;;;1.60;57.44;95233.25;5028159;28;20052;-80
2022/02/25 05:37:52;;;;;;;41.78;22.65;;;;;;;1.94;56.70;95234.72;5041694;28;20117;-79
2022/02/25 05:40:18;;;;;;;33.00;15.98;;;;;;;2.24;55.28;95236.47;5009898;28;20059;-79
2022/02/25 05:42:44;;;;;;;25.02;14.95;;;;;;;2.54;53.48;95241.75;5009776;28;20087;-79
2022/02/25 05:45:09;;;;;;;28.38;15.05;;;;;;;2.88;53.39;95239.53;5027356;28;20033;-80
2022/02/25 05:47:36;;;;;;;32.35;17.50;;;;;;;3.21;52.45;95239.25;5011786;28;20057;-80
2022/02/25 05:50:03;;;;;;;21.70;14.45;;;;;;;3.37;51.10;95235.72;5027808;28;20041;-79
2022/02/25 05:52:29;;;;;;;25.73;13.70;;;;;;;3.56;50.27;95245.47;5035282;28;20033;-80
2022/02/25 05:54:54;;;;;;;38.03;16.25;;;;;;;3.80;50.35;95242.63;5045488;28;20037;-80
2022/02/25 05:57:20;;;;;;;44.80;13.88;;;;;;;3.87;49.50;95237.56;5046498;28;20091;-79
2022/02/25 05:59:45;;;;;;;20.42;12.32;;;;;;;3.93;49.40;95242.00;5040288;28;20025;-77
2022/02/25 06:02:10;;;;;;;28.88;13.85;;;;;;;4.10;49.00;95234.88;5039773;28;20479;-78
2022/02/25 06:04:36;;;;;;;37.92;15.32;;;;;;;4.31;49.73;95232.31;5038409;28;20021;-76
2022/02/25 06:07:02;;;;;;;36.40;16.42;;;;;;;4.65;49.36;95234.25;5039819;28;20052;-76
2022/02/25 06:09:27;;;;;;;32.92;13.88;;;;;;;5.00;47.89;95245.44;5039368;28;20035;-77
2022/02/25 06:11:53;;;;;;;38.80;13.02;;;;;;;5.28;46.86;95237.72;5022568;28;20037;-77
2022/02/25 06:14:18;;;;;;;28.38;12.15;;;;;;;5.60;45.58;95236.31;5037919;28;20025;-77
2022/02/25 06:16:44;;;;;;;25.00;12.35;;;;;;;5.79;44.30;95234.81;5040397;28;20092;-77
2022/02/25 06:19:09;;;;;;;25.33;13.52;;;;;;;5.82;44.93;95231.06;5022011;28;20083;-77
2022/02/25 06:21:35;;;;;;;34.90;14.52;;;;;;;5.83;45.24;95227.50;5038879;28;20361;-77
2022/02/25 06:24:00;;;;;;;37.17;17.15;;;;;;;5.82;44.76;95229.28;5006225;28;20048;-77
2022/02/25 06:26:26;;;;;;;38.83;19.23;;;;;;;5.95;44.83;95237.13;5038291;28;20029;-77
2022/02/25 06:28:52;;;;;;;30.58;15.85;;;;;;;6.08;44.65;95226.06;5038619;28;20033;-77
2022/02/25 06:31:18;;;;;;;31.65;16.05;;;;;;;6.25;43.91;95223.91;5038724;28;20097;-77
2022/02/25 06:33:43;;;;;;;42.08;17.20;;;;;;;6.40;45.06;95221.97;5023005;28;20033;-77
2022/02/25 06:36:09;;;;;;;36.65;16.85;;;;;;;6.60;44.49;95214.25;5039457;28;20056;-77
2022/02/25 06:38:35;;;;;;;36.35;17.40;;;;;;;6.77;43.67;95219.84;5020955;28;20468;-77
2022/02/25 06:41:00;;;;;;;46.00;18.05;;;;;;;6.99;43.70;95226.41;5040650;28;20398;-77
2022/02/25 06:43:25;;;;;;;37.88;18.10;;;;;;;7.19;42.95;95236.75;5022163;28;20029;-77
2022/02/25 06:45:51;;;;;;;29.10;14.43;;;;;;;7.28;42.57;95238.13;5037556;28;20029;-78
2022/02/25 06:48:16;;;;;;;27.48;14.65;;;;;;;7.48;42.12;95238.09;5039583;28;20507;-77
2022/02/25 06:50:42;;;;;;;25.67;13.73;;;;;;;7.53;42.42;95246.06;5021828;28;20045;-76
2022/02/25 06:53:07;;;;;;;28.55;12.95;;;;;;;7.51;41.97;95245.47;5004833;28;20025;-77
2022/02/25 06:55:33;;;;;;;24.60;12.73;;;;;;;7.60;41.97;95241.66;5039838;28;20461;-76
2022/02/25 06:58:00;;;;;;;28.20;12.25;;;;;;;7.64;41.99;95245.44;5038352;28;20045;-77
2022/02/25 07:00:25;;;;;;;25.88;10.82;;;;;;;7.83;41.17;95231.66;5037892;28;20144;-77
2022/02/25 07:02:51;;;;;;;19.88;10.35;;;;;;;7.92;40.26;95228.84;5039075;28;20472;-77
2022/02/25 07:05:17;;;;;;;13.15;9.90;;;;;;;7.93;40.62;95230.41;5021554;28;20037;-77
2022/02/25 07:07:43;;;;;;;20.08;10.55;;;;;;;8.03;40.88;95226.41;5004440;28;20030;-77
2022/02/25 07:10:08;;;;;;;18.75;10.40;;;;;;;8.18;40.31;95230.53;5038177;28;20479;-76
2022/02/25 07:12:34;;;;;;;18.33;9.88;;;;;;;8.32;39.52;95225.09;5021271;28;20048;-77
2022/02/25 07:14:59;;;;;;;16.58;10.95;;;;;;;8.39;38.82;95235.44;5039502;28;20034;-77
2022/02/25 07:17:25;;;;;;;30.65;12.57;;;;;;;8.32;39.54;95227.69;5022293;28;20037;-77
2022/02/25 07:19:50;;;;;;;24.77;11.75;;;;;;;8.39;40.06;95225.88;5039240;28;20029;-77
2022/02/25 07:22:16;;;;;;;30.27;13.40;;;;;;;8.41;40.28;95229.03;5039030;28;20417;-77
2022/02/25 07:24:41;;;;;;;26.20;14.02;;;;;;;8.45;39.79;95224.22;5038909;28;20033;-77
2022/02/25 07:27:07;;;;;;;33.65;14.38;;;;;;;8.46;39.23;95225.03;5037672;28;20040;-77
2022/02/25 07:29:33;;;;;;;25.40;15.40;;;;;;;8.39;39.66;95209.53;5038876;28;20370;-76
2022/02/25 07:31:58;;;;;;;26.92;14.50;;;;;;;8.47;40.10;95216.28;5021718;28;20033;-77
2022/02/25 07:34:24;;;;;;;42.72;15.07;;;;;;;8.46;39.53;95219.84;5019305;28;20033;-77
2022/02/25 07:36:49;;;;;;;29.05;15.13;;;;;;;8.35;39.19;95216.13;5003849;28;20080;-77
2022/02/25 07:39:14;;;;;;;29.40;15.95;;;;;;;8.23;39.03;95215.97;5037844;28;20033;-77
2022/02/25 07:41:40;;;;;;;30.48;15.85;;;;;;;8.09;39.57;95219.59;5021144;28;20057;-76
2022/02/25 07:44:05;;;;;;;29.98;14.70;;;;;;;7.96;39.52;95219.66;5036884;28;20392;-76
2022/02/25 07:46:30;;;;;;;31.67;15.00;;;;;;;8.08;39.70;95218.00;5039704;28;20026;-77
2022/02/25 07:48:56;;;;;;;27.88;14.05;;;;;;;8.20;39.10;95216.38;5038107;28;20048;-76
2022/02/25 07:51:22;;;;;;;38.65;15.48;;;;;;;8.38;39.61;95219.09;5037910;28;20025;-77
2022/02/25 07:53:48;;;;;;;25.75;15.05;;;;;;;8.51;38.84;95233.78;5037857;28;20112;-77
2022/02/25 07:56:14;;;;;;;23.00;14.02;;;;;;;8.55;39.01;95224.59;5037806;28;20029;-77
2022/02/25 07:58:40;;;;;;;24.65;15.07;;;;;;;8.60;39.75;95224.75;5021138;28;20028;-77
2022/02/25 08:01:05;;;;;;;32.65;13.52;;;;;;;8.80;38.67;95219.44;5037047;28;20056;-77
2022/02/25 08:03:31;;;;;;;31.38;15.02;;;;;;;8.97;37.95;95228.31;5037404;28;20110;-77
2022/02/25 08:05:56;;;;;;;41.10;17.20;;;;;;;9.01;37.85;95226.06;5020344;28;20045;-76
2022/02/25 08:08:22;;;;;;;36.00;16.23;;;;;;;9.08;37.67;95218.22;5037316;28;20037;-76
2022/02/25 08:10:47;;;;;;;29.13;15.45;;;;;;;9.07;37.22;95206.25;5037570;28;20485;-77
2022/02/25 08:13:12;;;;;;;39.33;17.05;;;;;;;9.16;38.27;95207.59;5021126;28;20029;-77
2022/02/25 08:15:38;;;;;;;34.88;16.98;;;;;;;9.25;37.52;95203.72;5004610;28;20040;-77
2022/02/25 08:18:04;;;;;;;34.38;17.23;;;;;;;9.35;37.96;95198.03;5023563;28;20060;-77
2022/02/25 08:20:30;;;;;;;42.03;18.38;;;;;;;9.34;37.27;95202.44;5020155;28;20032;-77
2022/02/25 08:23:00;;;;;;;26.48;14.10;;;;;;;9.43;37.45;95200.34;5019446;28;20033;-77
2022/02/25 08:25:26;;;;;;;39.78;17.42;;;;;;;9.39;37.04;95194.78;5036287;28;20132;-78
2022/02/25 08:27:51;;;;;;;41.42;16.80;;;;;;;9.40;36.81;95196.38;5019902;28;20488;-77
2022/02/25 08:30:17;;;;;;;34.10;15.15;;;;;;;9.48;37.05;95197.91;5019094;28;20029;-77
2022/02/25 08:32:46;;;;;;;37.08;16.98;;;;;;;9.49;36.67;95195.09;5019940;28;20037;-77
2022/02/25 08:35:12;;;;;;;27.70;15.40;;;;;;;9.59;36.61;95195.38;5019392;28;20396;-77
2022/02/25 08:37:38;;;;;;;29.02;15.45;;;;;;;9.57;36.71;95181.03;5003014;28;20184;-77
2022/02/25 08:40:05;;;;;;;34.45;15.73;;;;;;;9.58;36.63;95180.03;5035330;28;20485;-77
2022/02/25 08:42:32;;;;;;;35.17;14.85;;;;;;;9.57;36.92;95175.84;5037839;28;20099;-77
2022/02/25 08:44:57;;;;;;;27.55;14.15;;;;;;;9.64;36.37;95166.19;5020147;28;20056;-78
2022/02/25 08:47:23;;;;;;;21.85;13.02;;;;;;;9.75;36.95;95177.63;5036702;28;20405;-78
2022/02/25 08:49:48;;;;;;;33.47;14.35;;;;;;;9.80;36.13;95170.00;5037754;28;20455;-78
2022/02/25 08:52:14;;;;;;;29.35;14.75;;;;;;;9.80;36.29;95164.81;5039666;28;20048;-77
2022/02/25 08:54:39;;;;;;;51.00;17.80;;;;;;;9.89;36.29;95158.28;5038126;28;20029;-77
2022/02/25 08:57:05;;;;;;;32.97;14.60;;;;;;;9.90;36.09;95152.09;5023017;28;20041;-77
2022/02/25 08:59:31;;;;;;;27.65;14.25;;;;;;;9.91;35.57;95148.47;5039652;28;20035;-77
2022/02/25 09:01:56;;;;;;;26.38;14.60;;;;;;;9.80;36.05;95154.44;5037912;28;20029;-77
2022/02/25 09:04:23;;;;;;;22.23;13.30;;;;;;;9.77;35.50;95152.28;5040829;28;20672;-77
2022/02/25 09:06:48;;;;;;;26.13;13.82;;;;;;;9.77;35.17;95139.28;5039342;28;20036;-77
2022/02/25 09:09:13;;;;;;;37.67;13.50;;;;;;;9.84;36.00;95145.97;5039245;28;20029;-77
2022/02/25 09:11:39;;;;;;;24.38;12.88;;;;;;;9.95;35.69;95134.06;5038927;28;20028;-78
2022/02/25 09:14:04;;;;;;;41.72;11.95;;;;;;;10.00;35.29;95134.19;5022336;28;20480;-77
2022/02/25 09:16:30;;;;;;;27.45;13.60;;;;;;;10.00;35.07;95123.78;5022272;28;20032;-77
2022/02/25 09:18:55;;;;;;;25.20;12.63;;;;;;;10.04;35.06;95130.13;5038863;28;20583;-77
2022/02/25 09:21:21;;;;;;;21.08;12.90;;;;;;;10.09;34.47;95127.69;5038547;28;20029;-77
2022/02/25 09:23:47;;;;;;;24.00;12.85;;;;;;;10.09;34.99;95122.50;5037417;28;20037;-77
2022/02/25 09:26:13;;;;;;;27.95;11.93;;;;;;;10.15;35.08;95116.41;5036946;28;20581;-77
2022/02/25 09:28:38;;;;;;;30.13;13.88;;;;;;;10.16;34.93;95128.38;5005798;28;20504;-77
2022/02/25 09:31:03;;;;;;;32.40;14.60;;;;;;;10.14;35.92;95121.81;5039678;28;20492;-77
2022/02/25 09:33:29;;;;;;;23.90;14.73;;;;;;;10.11;34.80;95120.47;5038058;28;20040;-77
2022/02/25 09:35:54;;;;;;;30.75;14.00;;;;;;;10.12;35.30;95122.03;5040016;28;20044;-78
2022/02/25 09:38:20;;;;;;;32.30;14.57;;;;;;;10.00;35.99;95108.22;5035220;28;20060;-77
2022/02/25 09:40:47;;;;;;;30.65;18.52;;;;;;;9.98;35.61;95114.63;5035914;28;20500;-76
2022/02/25 09:43:13;;;;;;;33.75;14.63;;;;;;;9.98;36.07;95114.63;5031485;28;20051;-77
2022/02/25 09:45:38;;;;;;;31.50;14.90;;;;;;;10.02;35.52;95106.19;5040061;28;20416;-77
2022/02/25 09:48:07;;;;;;;28.60;13.65;;;;;;;9.98;34.90;95099.06;5039692;28;20099;-77
2022/02/25 09:50:32;;;;;;;23.23;12.30;;;;;;;9.96;35.42;95093.28;5039958;28;20036;-77
2022/02/25 09:52:57;;;;;;;24.25;14.07;;;;;;;10.00;35.53;95092.63;5038825;28;20040;-77
2022/02/25 09:55:26;;;;;;;20.88;11.38;;;;;;;9.92;34.43;95085.94;5021723;28;20036;-77
2022/02/25 09:57:51;;;;;;;22.08;13.95;;;;;;;9.83;35.26;95081.25;5022748;28;20021;-78
2022/02/25 10:00:17;;;;;;;27.05;12.30;;;;;;;9.90;34.19;95074.16;5020536;28;20442;-77
2022/02/25 10:02:44;;;;;;;28.95;12.70;;;;;;;9.96;33.79;95069.91;5007365;28;20122;-78
2022/02/25 10:05:11;;;;;;;39.15;11.60;;;;;;;10.00;33.93;95071.03;5022363;28;20109;-76
2022/02/25 10:07:37;;;;;;;28.33;11.73;;;;;;;10.10;34.36;95066.91;5039663;28;20193;-78
2022/02/25 10:10:03;;;;;;;23.75;12.88;;;;;;;10.09;34.22;95059.34;5038870;28;20117;-78
2022/02/25 10:12:28;;;;;;;43.45;12.57;;;;;;;10.15;34.76;95068.84;5039370;28;20492;-77
2022/02/25 10:14:54;;;;;;;19.63;11.82;;;;;;;10.19;33.67;95064.75;5039454;28;20127;-77
2022/02/25 10:17:26;;;;;;;30.88;13.00;;;;;;;10.23;33.32;95065.94;5039380;28;20420;-78
2022/02/25 10:19:54;;;;;;;26.52;12.68;;;;;;;10.18;32.33;95069.16;5022378;28;20029;-77
2022/02/25 10:22:25;;;;;;;30.10;13.68;;;;;;;10.05;33.12;95064.16;5005102;28;20044;-77
2022/02/25 10:24:54;;;;;;;22.83;14.10;;;;;;;10.09;34.06;95054.94;5038955;28;20044;-77
2022/02/25 10:27:25;;;;;;;24.63;13.93;;;;;;;10.05;33.97;95055.56;5038602;28;20553;-77
2022/02/25 10:30:03;;;;;;;28.55;14.18;;;;;;;10.04;33.22;95056.59;5036457;28;20567;-77
2022/02/25 10:32:35;;;;;;;25.05;13.65;;;;;;;9.99;33.88;95046.88;5019872;28;20044;-77
2022/02/25 10:35:01;;;;;;;26.73;11.48;;;;;;;10.13;34.13;95044.88;5038231;28;20520;-77
2022/02/25 10:37:27;;;;;;;27.52;13.38;;;;;;;10.25;33.17;95053.53;5019668;28;20033;-77
2022/02/25 10:39:53;;;;;;;29.20;14.13;;;;;;;10.32;33.91;95048.22;5034739;28;20032;-77
2022/02/25 10:42:22;;;;;;;28.75;15.43;;;;;;;10.44;33.72;95052.41;5038208;28;20033;-77
2022/02/25 10:44:50;;;;;;;29.92;13.55;;;;;;;10.48;32.46;95043.16;5040697;28;20440;-77
2022/02/25 10:47:29;;;;;;;23.42;12.98;;;;;;;10.47;32.60;95033.78;5038609;28;20048;-77
2022/02/25 10:49:59;;;;;;;29.40;12.32;;;;;;;10.42;32.22;95031.06;5026205;28;20076;-77
2022/02/25 10:52:29;;;;;;;23.05;12.45;;;;;;;10.31;32.27;95020.66;5043345;28;20500;-77
2022/02/25 10:54:54;;;;;;;27.42;11.18;;;;;;;10.35;32.66;95026.97;5042343;28;20051;-77
2022/02/25 10:57:20;;;;;;;29.77;12.43;;;;;;;10.42;32.05;95012.06;5039203;28;20998;-77
2022/02/25 10:59:46;;;;;;;23.00;10.25;;;;;;;10.48;31.07;95004.16;5038111;28;20072;-77
2022/02/25 11:02:32;;;;;;;20.60;9.55;;;;;;;10.51;30.23;94995.88;5039163;28;20433;-78
2022/02/25 11:05:10;;;;;;;30.08;9.93;;;;;;;10.58;30.70;94993.19;5040376;28;20041;-78
2022/02/25 11:07:39;;;;;;;24.17;11.25;;;;;;;10.64;30.99;94983.69;5037749;28;20041;-77
2022/02/25 11:10:05;;;;;;;25.48;10.85;;;;;;;10.59;30.38;94983.59;5021679;28;20560;-77
2022/02/25 11:12:31;;;;;;;23.10;11.30;;;;;;;10.61;30.47;94979.75;5037123;28;20466;-77
2022/02/25 11:15:00;;;;;;;23.40;10.05;;;;;;;10.74;30.46;94978.72;5020649;28;20036;-77
2022/02/25 11:17:25;;;;;;;19.63;9.90;;;;;;;10.82;30.64;94970.53;5029779;28;20033;-77
2022/02/25 11:19:54;;;;;;;30.17;10.02;;;;;;;10.81;30.44;94961.94;5038316;28;20082;-77
2022/02/25 11:22:20;;;;;;;10.45;6.68;;;;;;;10.74;27.99;94961.28;5021011;28;20168;-77
2022/02/25 11:24:46;;;;;;;18.05;7.00;;;;;;;10.37;28.40;94955.53;5019277;28;20036;-77